createdAt,value
2018-03-30T00:02:05.576Z,100333.88
2018-03-30T00:04:31.684Z,100332.75
2018-03-30T00:07:05.034Z,100336.18
2018-03-30T00:09:50.602Z,100340.36
2018-03-30T00:12:16.639Z,100337.39
2018-03-30T00:14:42.637Z,100338.88
2018-03-30T00:17:08.690Z,100338.75
2018-03-30T00:19:35.452Z,100349.06
2018-03-30T00:22:02.185Z,100349.33
2018-03-30T00:24:28.937Z,100351.09
2018-03-30T00:26:55.726Z,100356.39
2018-03-30T00:29:22.501Z,100358.02
2018-03-30T00:31:48.668Z,100363.71
2018-03-30T00:34:14.696Z,100357.33
2018-03-30T00:36:40.724Z,100365.34
2018-03-30T00:39:06.752Z,100372.13
2018-03-30T00:41:32.760Z,100376.73
2018-03-30T00:43:58.783Z,100379.58
2018-03-30T00:46:24.835Z,100379.98
2018-03-30T00:48:50.853Z,100364.12
2018-03-30T00:51:16.850Z,100375.92
2018-03-30T00:53:46.804Z,100382.84
2018-03-30T00:56:12.871Z,100382.84
2018-03-30T00:58:38.978Z,100377.13
2018-03-30T01:01:05.801Z,100377.27
2018-03-30T01:03:32.603Z,100377.13
2018-03-30T01:05:58.631Z,100381.20
2018-03-30T01:08:24.648Z,100388.39
2018-03-30T01:10:50.670Z,100380.11
2018-03-30T01:13:16.723Z,100384.19
2018-03-30T01:15:43.785Z,100384.73
2018-03-30T01:18:09.811Z,100388.80
2018-03-30T01:20:36.206Z,100392.21
2018-03-30T01:23:02.296Z,100403.72
2018-03-30T01:25:29.054Z,100406.56
2018-03-30T01:27:55.087Z,100404.15
2018-03-30T01:30:21.114Z,100404.56
2018-03-30T01:32:47.176Z,100401.98
2018-03-30T01:35:13.236Z,100400.08
2018-03-30T01:37:39.973Z,100400.62
2018-03-30T01:40:06.748Z,100401.02
2018-03-30T01:42:32.768Z,100407.41
2018-03-30T01:44:58.849Z,100408.89
2018-03-30T01:47:25.608Z,100410.25
2018-03-30T01:49:52.349Z,100412.69
2018-03-30T01:52:18.369Z,100416.90
2018-03-30T01:54:45.186Z,100421.09
2018-03-30T01:57:11.170Z,100425.29
2018-03-30T01:59:37.198Z,100423.13
2018-03-30T02:02:03.277Z,100432.22
2018-03-30T02:04:30.082Z,100430.05
2018-03-30T02:06:56.215Z,100435.73
2018-03-30T02:09:22.209Z,100433.70
2018-03-30T02:11:48.236Z,100447.41
2018-03-30T02:14:14.241Z,100445.10
2018-03-30T02:16:40.282Z,100447.00
2018-03-30T02:19:06.425Z,100447.95
2018-03-30T02:21:32.438Z,100447.95
2018-03-30T02:23:58.437Z,100449.97
2018-03-30T02:26:24.451Z,100446.98
2018-03-30T02:28:50.442Z,100452.15
2018-03-30T02:31:17.220Z,100451.05
2018-03-30T02:33:43.274Z,100456.07
2018-03-30T02:36:09.285Z,100454.30
2018-03-30T02:38:35.347Z,100454.59
2018-03-30T02:41:01.430Z,100456.61
2018-03-30T02:43:27.462Z,100462.98
2018-03-30T02:45:53.497Z,100454.03
2018-03-30T02:48:19.519Z,100454.03
2018-03-30T02:50:45.552Z,100454.98
2018-03-30T02:53:11.677Z,100451.04
2018-03-30T02:55:37.759Z,100451.73
2018-03-30T02:58:03.763Z,100451.61
2018-03-30T03:00:30.560Z,100451.04
2018-03-30T03:02:56.651Z,100451.88
2018-03-30T03:05:22.703Z,100456.22
2018-03-30T03:07:48.712Z,100455.52
2018-03-30T03:10:14.733Z,100459.59
2018-03-30T03:12:40.752Z,100461.11
2018-03-30T03:15:06.889Z,100455.41
2018-03-30T03:17:32.901Z,100457.70
2018-03-30T03:19:58.896Z,100453.36
2018-03-30T03:22:25.670Z,100454.05
2018-03-30T03:24:51.879Z,100456.89
2018-03-30T03:27:18.620Z,100453.77
2018-03-30T03:29:45.345Z,100450.37
2018-03-30T03:32:12.201Z,100449.43
2018-03-30T03:34:39.030Z,100462.58
2018-03-30T03:37:05.837Z,100453.09
2018-03-30T03:39:31.903Z,100451.05
2018-03-30T03:41:58.649Z,100451.73
2018-03-30T03:44:25.391Z,100453.48
2018-03-30T03:46:52.192Z,100447.11
2018-03-30T03:49:18.230Z,100457.14
2018-03-30T03:51:44.276Z,100455.25
2018-03-30T03:54:11.017Z,100455.38
2018-03-30T03:56:37.808Z,100460.39
2018-03-30T03:59:03.841Z,100459.71
2018-03-30T04:01:29.908Z,100462.42
2018-03-30T04:03:56.793Z,100462.83
2018-03-30T04:06:22.844Z,100456.18
2018-03-30T04:08:48.911Z,100451.42
2018-03-30T04:11:14.936Z,100451.98
2018-03-30T04:13:40.975Z,100456.72
2018-03-30T04:16:07.164Z,100454.01
2018-03-30T04:18:33.903Z,100456.44
2018-03-30T04:21:00.661Z,100447.25
2018-03-30T04:23:27.495Z,100459.17
2018-03-30T04:25:54.253Z,100454.70
2018-03-30T04:28:20.259Z,100459.17
2018-03-30T04:30:47.110Z,100455.34
2018-03-30T04:33:13.859Z,100456.19
2018-03-30T04:35:39.905Z,100462.56
2018-03-30T04:38:05.987Z,100457.23
2018-03-30T04:40:32.892Z,100466.49
2018-03-30T04:42:58.888Z,100464.42
2018-03-30T04:45:24.921Z,100466.19
2018-03-30T04:47:50.954Z,100462.25
2018-03-30T04:50:17.186Z,100460.89
2018-03-30T04:52:43.246Z,100470.52
2018-03-30T04:55:10.106Z,100462.92
2018-03-30T04:57:36.921Z,100472.28
2018-03-30T05:00:03.695Z,100474.45
2018-03-30T05:02:30.515Z,100475.41
2018-03-30T05:04:58.006Z,100471.59
2018-03-30T05:07:24.013Z,100465.09
2018-03-30T05:09:50.840Z,100465.50
2018-03-30T05:12:17.615Z,100463.05
2018-03-30T05:14:43.650Z,100468.06
2018-03-30T05:17:09.653Z,100465.78
2018-03-30T05:19:36.463Z,100463.73
2018-03-30T05:22:02.629Z,100459.12
2018-03-30T05:24:28.642Z,100453.30
2018-03-30T05:26:55.432Z,100459.53
2018-03-30T05:29:21.497Z,100470.25
2018-03-30T05:31:48.304Z,100466.31
2018-03-30T05:34:15.081Z,100469.03
2018-03-30T05:36:41.942Z,100476.63
2018-03-30T05:39:08.672Z,100473.14
2018-03-30T05:41:35.412Z,100480.87
2018-03-30T05:44:02.218Z,100481.82
2018-03-30T05:46:28.230Z,100491.04
2018-03-30T05:48:54.270Z,100480.47
2018-03-30T05:51:20.293Z,100488.47
2018-03-30T05:53:46.327Z,100494.02
2018-03-30T05:56:12.378Z,100501.34
2018-03-30T05:58:39.125Z,100503.24
2018-03-30T06:01:05.873Z,100500.80
2018-03-30T06:03:32.645Z,100504.45
2018-03-30T06:05:58.669Z,100507.87
2018-03-30T06:08:24.691Z,100512.88
2018-03-30T06:10:50.712Z,100507.73
2018-03-30T06:13:16.759Z,100512.38
2018-03-30T06:15:42.758Z,100509.11
2018-03-30T06:18:08.793Z,100497.99
2018-03-30T06:20:34.941Z,100496.64
2018-03-30T06:23:00.967Z,100494.33
2018-03-30T06:25:27.041Z,100496.92
2018-03-30T06:27:53.038Z,100499.52
2018-03-30T06:30:19.780Z,100509.41
2018-03-30T06:32:46.549Z,100514.45
2018-03-30T06:35:12.600Z,100517.83
2018-03-30T06:37:38.624Z,100524.48
2018-03-30T06:40:04.630Z,100523.00
2018-03-30T06:42:30.654Z,100525.70
2018-03-30T06:44:56.660Z,100531.00
2018-03-30T06:47:22.695Z,100526.67
2018-03-30T06:49:48.734Z,100532.37
2018-03-30T06:52:14.741Z,100528.17
2018-03-30T06:54:40.809Z,100528.04
2018-03-30T06:57:06.998Z,100535.22
2018-03-30T06:59:32.980Z,100539.56
2018-03-30T07:01:59.718Z,100543.23
2018-03-30T07:04:26.538Z,100538.48
2018-03-30T07:06:52.561Z,100538.22
2018-03-30T07:09:18.563Z,100540.13
2018-03-30T07:11:44.557Z,100538.12
2018-03-30T07:14:10.657Z,100535.23
2018-03-30T07:16:38.225Z,100532.94
2018-03-30T07:19:04.981Z,100533.08
2018-03-30T07:21:31.013Z,100538.91
2018-03-30T07:23:57.786Z,100533.08
2018-03-30T07:26:23.796Z,100537.15
2018-03-30T07:28:49.857Z,100538.91
2018-03-30T07:31:15.948Z,100546.39
2018-03-30T07:33:42.083Z,100554.81
2018-03-30T07:36:08.094Z,100553.59
2018-03-30T07:38:34.145Z,100552.78
2018-03-30T07:41:02.044Z,100553.09
2018-03-30T07:43:28.788Z,100557.84
2018-03-30T07:45:55.512Z,100552.82
2018-03-30T07:48:23.034Z,100554.84
2018-03-30T07:50:49.045Z,100547.91
2018-03-30T07:53:15.129Z,100547.23
2018-03-30T07:55:41.234Z,100549.14
2018-03-30T07:58:07.302Z,100551.59
2018-03-30T08:00:33.330Z,100553.49
2018-03-30T08:02:59.345Z,100558.66
2018-03-30T08:05:26.098Z,100564.91
2018-03-30T08:07:52.189Z,100557.59
2018-03-30T08:10:18.971Z,100562.34
2018-03-30T08:12:44.995Z,100560.72
2018-03-30T08:15:10.999Z,100560.58
2018-03-30T08:17:37.789Z,100561.27
2018-03-30T08:20:03.802Z,100555.97
2018-03-30T08:22:29.835Z,100557.84
2018-03-30T08:24:55.910Z,100562.45
2018-03-30T08:27:21.964Z,100564.37
2018-03-30T08:29:48.088Z,100563.42
2018-03-30T08:32:14.173Z,100569.14
2018-03-30T08:34:40.922Z,100568.06
2018-03-30T08:37:07.838Z,100563.97
2018-03-30T08:39:33.858Z,100565.87
2018-03-30T08:41:59.954Z,100566.19
2018-03-30T08:44:26.000Z,100562.23
2018-03-30T08:46:52.033Z,100565.36
2018-03-30T08:49:18.871Z,100568.63
2018-03-30T08:51:44.920Z,100571.08
2018-03-30T08:54:11.001Z,100571.20
2018-03-30T08:56:37.124Z,100573.65
2018-03-30T08:59:03.243Z,100575.28
2018-03-30T09:01:29.284Z,100569.98
2018-03-30T09:03:55.381Z,100575.83
2018-03-30T09:06:21.538Z,100568.90
2018-03-30T09:08:47.735Z,100571.48
2018-03-30T09:11:13.758Z,100566.18
2018-03-30T09:13:39.800Z,100563.47
2018-03-30T09:16:05.812Z,100556.41
2018-03-30T09:18:31.954Z,100548.36
2018-03-30T09:20:58.850Z,100549.58
2018-03-30T09:23:25.621Z,100548.36
2018-03-30T09:25:51.671Z,100547.81
2018-03-30T09:28:17.802Z,100548.22
2018-03-30T09:30:43.838Z,100544.28
2018-03-30T09:33:16.805Z,100537.23
2018-03-30T09:35:42.839Z,100539.66
2018-03-30T09:38:09.037Z,100533.00
2018-03-30T09:40:35.070Z,100536.13
2018-03-30T09:43:01.081Z,100532.21
2018-03-30T09:45:27.213Z,100527.02
2018-03-30T09:47:53.240Z,100525.52
2018-03-30T09:50:19.292Z,100528.79
2018-03-30T09:52:45.318Z,100524.03
2018-03-30T09:55:11.311Z,100523.35
2018-03-30T09:57:37.346Z,100519.00
2018-03-30T10:00:03.567Z,100510.17
2018-03-30T10:02:29.655Z,100509.48
2018-03-30T10:05:00.321Z,100499.30
2018-03-30T10:07:26.342Z,100501.33
2018-03-30T10:09:52.433Z,100488.02
2018-03-30T10:12:19.205Z,100486.39
2018-03-30T10:14:45.234Z,100481.46
2018-03-30T10:17:11.300Z,100481.05
2018-03-30T10:19:38.179Z,100477.79
2018-03-30T10:22:04.290Z,100481.73
2018-03-30T10:24:31.101Z,100474.36
2018-03-30T10:26:58.200Z,100478.70
2018-03-30T10:29:24.280Z,100477.34
2018-03-30T10:31:51.076Z,100477.89
2018-03-30T10:34:17.344Z,100474.59
2018-03-30T10:36:44.163Z,100477.99
2018-03-30T10:39:10.378Z,100478.67
2018-03-30T10:41:36.394Z,100474.86
2018-03-30T10:44:02.541Z,100481.25
2018-03-30T10:46:28.569Z,100476.31
2018-03-30T10:48:54.665Z,100471.92
2018-03-30T10:51:20.684Z,100466.88
2018-03-30T10:53:46.743Z,100458.72
2018-03-30T10:56:12.842Z,100460.48
2018-03-30T10:58:38.857Z,100462.53
2018-03-30T11:01:04.969Z,100465.66
2018-03-30T11:03:31.013Z,100464.64
2018-03-30T11:05:57.303Z,100461.63
2018-03-30T11:08:24.065Z,100460.80
2018-03-30T11:10:50.110Z,100455.48
2018-03-30T11:13:16.144Z,100449.86
2018-03-30T11:15:42.293Z,100451.06
2018-03-30T11:18:08.291Z,100455.09
2018-03-30T11:20:34.389Z,100437.78
2018-03-30T11:23:00.408Z,100437.45
2018-03-30T11:25:26.422Z,100436.61
2018-03-30T11:27:53.201Z,100427.84
2018-03-30T11:30:19.278Z,100425.73
2018-03-30T11:32:45.303Z,100428.44
2018-03-30T11:35:12.191Z,100426.09
2018-03-30T11:37:38.201Z,100417.45
2018-03-30T11:40:04.217Z,100412.52
2018-03-30T11:42:30.246Z,100409.87
2018-03-30T11:44:56.260Z,100404.79
2018-03-30T11:47:22.388Z,100403.77
2018-03-30T11:49:48.418Z,100403.61
2018-03-30T11:52:14.483Z,100400.88
2018-03-30T11:54:40.838Z,100401.50
2018-03-30T11:57:07.656Z,100391.92
2018-03-30T11:59:33.655Z,100388.16
2018-03-30T12:01:59.744Z,100384.60
2018-03-30T12:04:25.781Z,100376.93
2018-03-30T12:06:51.834Z,100380.39
2018-03-30T12:09:17.900Z,100376.66
2018-03-30T12:11:44.654Z,100381.22
2018-03-30T12:14:10.645Z,100372.47
2018-03-30T12:16:36.736Z,100373.92
2018-03-30T12:19:02.814Z,100362.78
2018-03-30T12:21:29.573Z,100359.20
2018-03-30T12:23:55.587Z,100364.02
2018-03-30T12:26:22.453Z,100368.20
2018-03-30T12:28:48.594Z,100361.44
2018-03-30T12:31:14.606Z,100357.98
2018-03-30T12:33:40.618Z,100355.48
2018-03-30T12:36:06.691Z,100348.17
2018-03-30T12:38:33.497Z,100349.36
2018-03-30T12:40:59.557Z,100346.71
2018-03-30T12:43:25.540Z,100337.91
2018-03-30T12:45:51.673Z,100336.36
2018-03-30T12:48:17.736Z,100338.73
2018-03-30T12:50:45.222Z,100331.73
2018-03-30T12:53:11.999Z,100333.44
2018-03-30T12:55:38.027Z,100321.91
2018-03-30T12:58:04.038Z,100322.53
2018-03-30T13:00:30.070Z,100314.83
2018-03-30T13:02:56.069Z,100315.98
2018-03-30T13:05:22.110Z,100313.73
2018-03-30T13:07:48.135Z,100308.86
2018-03-30T13:10:14.142Z,100305.39
2018-03-30T13:12:40.194Z,100296.72
2018-03-30T13:15:06.249Z,100285.16
2018-03-30T13:17:33.124Z,100286.00
2018-03-30T13:19:59.209Z,100281.31
2018-03-30T13:22:25.292Z,100273.88
2018-03-30T13:24:51.331Z,100275.22
2018-03-30T13:27:17.457Z,100254.67
2018-03-30T13:29:43.488Z,100240.02
2018-03-30T13:32:09.540Z,100243.22
2018-03-30T13:34:35.617Z,100236.27
2018-03-30T13:37:02.374Z,100238.85
2018-03-30T13:39:28.385Z,100245.34
2018-03-30T13:41:54.509Z,100243.92
2018-03-30T13:44:20.534Z,100236.63
2018-03-30T13:46:46.582Z,100231.48
2018-03-30T13:49:12.707Z,100232.25
2018-03-30T13:51:57.982Z,100226.38
2018-03-30T13:54:27.347Z,100218.95
2018-03-30T13:56:55.275Z,100213.94
2018-03-30T13:59:23.986Z,100217.79
2018-03-30T14:01:54.980Z,100217.36
2018-03-30T14:04:44.296Z,100214.82
2018-03-30T14:10:16.968Z,100207.42
2018-03-30T14:12:43.030Z,100199.34
2018-03-30T14:15:10.908Z,100197.72
2018-03-30T14:17:39.776Z,100197.77
2018-03-30T14:20:28.558Z,100186.85
2018-03-30T14:22:59.425Z,100189.45
2018-03-30T14:25:28.416Z,100195.63
2018-03-30T14:28:02.323Z,100188.18
2018-03-30T14:30:29.374Z,100183.39
2018-03-30T14:33:04.647Z,100179.30
2018-03-30T14:35:42.092Z,100179.59
2018-03-30T14:38:12.269Z,100178.50
2018-03-30T14:40:40.850Z,100168.17
2018-03-30T14:43:15.450Z,100172.13
2018-03-30T14:45:44.193Z,100180.06
2018-03-30T14:48:16.322Z,100163.72
2018-03-30T14:50:45.025Z,100173.59
2018-03-30T14:53:22.114Z,100159.38
2018-03-30T14:58:55.645Z,100166.77
2018-03-30T15:07:43.287Z,100145.76
2018-03-30T15:13:15.735Z,100142.77
2018-03-30T15:16:06.791Z,100133.67
2018-03-30T15:18:39.874Z,100136.59
2018-03-30T15:21:08.461Z,100140.91
2018-03-30T15:23:36.050Z,100135.19
2018-03-30T15:26:12.853Z,100131.13
2018-03-30T15:28:42.939Z,100137.05
2018-03-30T15:34:22.418Z,100135.53
2018-03-30T15:36:56.342Z,100147.00
2018-03-30T15:39:22.379Z,100133.43
2018-03-30T15:41:49.254Z,100142.88
2018-03-30T15:44:16.031Z,100125.58
2018-03-30T15:46:48.949Z,100130.48
2018-03-30T15:49:14.997Z,100130.52
2018-03-30T15:51:45.483Z,100127.11
2018-03-30T15:54:11.373Z,100120.83
2018-03-30T15:57:19.350Z,100116.48
2018-03-30T16:15:41.239Z,100132.42
2018-03-30T16:18:07.310Z,100129.97
2018-03-30T16:20:33.941Z,100140.03
2018-03-30T16:22:59.839Z,100135.82
2018-03-30T16:25:25.738Z,100140.77
2018-03-30T16:27:51.649Z,100145.40
2018-03-30T16:30:17.560Z,100148.71
2018-03-30T16:32:43.699Z,100143.17
2018-03-30T16:35:09.664Z,100132.34
2018-03-30T16:37:35.593Z,100126.51
2018-03-30T16:40:02.286Z,100122.86
2018-03-30T16:42:28.248Z,100122.11
2018-03-30T16:44:54.141Z,100126.13
2018-03-30T16:47:20.054Z,100127.11
2018-03-30T16:49:45.966Z,100132.52
2018-03-30T16:52:11.892Z,100130.00
2018-03-30T16:54:37.835Z,100129.11
2018-03-30T16:57:03.857Z,100118.13
2018-03-30T16:59:29.806Z,100121.41
2018-03-30T17:01:55.756Z,100120.28
2018-03-30T17:04:21.756Z,100126.83
2018-03-30T17:06:48.392Z,100110.22
2018-03-30T17:09:15.029Z,100115.30
2018-03-30T17:11:41.662Z,100107.15
2018-03-30T17:14:08.383Z,100112.52
2018-03-30T17:16:34.283Z,100114.31
2018-03-30T17:19:00.190Z,100108.77
2018-03-30T17:21:26.119Z,100108.02
2018-03-30T17:23:52.048Z,100105.47
2018-03-30T17:26:17.955Z,100103.59
2018-03-30T17:28:43.848Z,100096.41
2018-03-30T17:31:10.467Z,100094.11
2018-03-30T17:33:37.898Z,100092.41
2018-03-30T17:36:03.802Z,100089.86
2018-03-30T17:38:29.706Z,100087.02
2018-03-30T17:40:55.599Z,100078.88
2018-03-30T17:43:22.230Z,100087.10
2018-03-30T17:45:48.890Z,100072.55
2018-03-30T17:48:14.809Z,100080.06
2018-03-30T17:50:40.695Z,100082.67
2018-03-30T17:53:06.602Z,100086.78
2018-03-30T17:55:32.497Z,100088.28
2018-03-30T17:57:58.422Z,100092.02
2018-03-30T18:00:24.337Z,100100.33
2018-03-30T18:02:50.249Z,100099.41
2018-03-30T18:05:16.130Z,100096.70
2018-03-30T18:07:42.844Z,100106.64
2018-03-30T18:10:08.743Z,100111.02
2018-03-30T18:12:34.691Z,100112.66
2018-03-30T18:15:00.610Z,100106.44
2018-03-30T18:17:26.536Z,100101.83
2018-03-30T18:19:52.502Z,100106.31
2018-03-30T18:22:19.185Z,100108.11
2018-03-30T18:24:45.106Z,100104.98
2018-03-30T18:27:11.030Z,100105.00
2018-03-30T18:29:36.927Z,100103.38
2018-03-30T18:32:02.864Z,100102.30
2018-03-30T18:34:28.859Z,100105.98
2018-03-30T18:36:54.818Z,100109.98
2018-03-30T18:39:20.733Z,100110.00
2018-03-30T18:41:46.752Z,100108.64
2018-03-30T18:44:13.496Z,100113.41
2018-03-30T18:46:39.413Z,100103.62
2018-03-30T18:49:05.314Z,100111.13
2018-03-30T18:51:31.229Z,100109.35
2018-03-30T18:53:57.153Z,100108.42
2018-03-30T18:56:23.095Z,100110.33
2018-03-30T18:58:48.997Z,100112.81
2018-03-30T19:01:14.876Z,100114.47
2018-03-30T19:03:41.540Z,100115.16
2018-03-30T19:06:07.467Z,100113.39
2018-03-30T19:08:33.410Z,100127.14
2018-03-30T19:10:59.277Z,100131.36
2018-03-30T19:13:25.976Z,100127.02
2018-03-30T19:15:51.888Z,100126.34
2018-03-30T19:18:17.781Z,100129.77
2018-03-30T19:20:43.684Z,100130.86
2018-03-30T19:23:10.457Z,100133.72
2018-03-30T19:25:36.375Z,100131.55
2018-03-30T19:28:02.279Z,100128.70
2018-03-30T19:30:28.354Z,100136.05
2018-03-30T19:32:54.254Z,100138.78
2018-03-30T19:35:20.160Z,100137.44
2018-03-30T19:37:46.103Z,100141.92
2018-03-30T19:40:12.016Z,100140.30
2018-03-30T19:42:37.914Z,100136.50
2018-03-30T19:45:03.829Z,100134.33
2018-03-30T19:47:30.453Z,100126.17
2018-03-30T19:49:56.350Z,100134.88
2018-03-30T19:52:22.282Z,100133.80
2018-03-30T19:54:48.214Z,100136.11
2018-03-30T19:57:14.122Z,100131.13
2018-03-30T19:59:40.019Z,100126.23
2018-03-30T20:02:06.029Z,100116.86
2018-03-30T20:04:31.921Z,100117.95
2018-03-30T20:06:57.803Z,100118.50
2018-03-30T20:09:23.806Z,100115.92
2018-03-30T20:11:49.702Z,100106.54
2018-03-30T20:14:16.351Z,100102.05
2018-03-30T20:16:42.282Z,100101.65
2018-03-30T20:19:08.205Z,100104.11
2018-03-30T20:21:34.124Z,100093.37
2018-03-30T20:24:00.053Z,100087.11
2018-03-30T20:26:25.958Z,100089.98
2018-03-30T20:28:51.913Z,100089.71
2018-03-30T20:31:17.810Z,100088.35
2018-03-30T20:33:43.762Z,100084.03
2018-03-30T20:36:09.774Z,100080.91
2018-03-30T20:38:35.678Z,100085.13
2018-03-30T20:41:01.588Z,100083.77
2018-03-30T20:43:27.526Z,100087.04
2018-03-30T20:45:53.469Z,100089.64
2018-03-30T20:48:20.140Z,100090.59
2018-03-30T20:50:47.024Z,100078.91
2018-03-30T20:53:12.956Z,100079.05
2018-03-30T20:55:38.958Z,100080.00
2018-03-30T20:58:06.425Z,100072.39
2018-03-30T21:00:33.245Z,100069.41
2018-03-30T21:02:59.194Z,100069.00
2018-03-30T21:05:25.113Z,100065.61
2018-03-30T21:07:51.014Z,100062.89
2018-03-30T21:10:16.930Z,100053.91
2018-03-30T21:12:42.891Z,100049.83
2018-03-30T21:15:08.938Z,100059.09
2018-03-30T21:17:35.637Z,100065.08
2018-03-30T21:20:01.657Z,100065.48
2018-03-30T21:22:27.574Z,100062.36
2018-03-30T21:24:53.501Z,100065.25
2018-03-30T21:27:19.380Z,100054.37
2018-03-30T21:29:46.054Z,100051.80
2018-03-30T21:32:11.990Z,100057.78
2018-03-30T21:34:37.906Z,100061.45
2018-03-30T21:37:03.789Z,100057.11
2018-03-30T21:39:30.422Z,100049.91
2018-03-30T21:41:57.176Z,100041.75
2018-03-30T21:44:23.882Z,100048.95
2018-03-30T21:46:49.822Z,100048.28
2018-03-30T21:49:16.460Z,100049.23
2018-03-30T21:51:43.102Z,100050.06
2018-03-30T21:54:09.769Z,100051.28
2018-03-30T21:56:35.690Z,100055.91
2018-03-30T21:59:01.678Z,100056.20
2018-03-30T22:01:27.599Z,100060.69
2018-03-30T22:03:54.250Z,100053.62
2018-03-30T22:06:20.889Z,100057.84
2018-03-30T22:08:46.818Z,100056.48
2018-03-30T22:11:12.731Z,100056.08
2018-03-30T22:13:39.370Z,100058.25
2018-03-30T22:16:06.006Z,100061.66
2018-03-30T22:18:32.626Z,100058.94
2018-03-30T22:20:59.328Z,100059.66
2018-03-30T22:23:25.225Z,100065.50
2018-03-30T22:25:51.132Z,100051.64
2018-03-30T22:28:17.034Z,100056.67
2018-03-30T22:30:43.735Z,100057.77
2018-03-30T22:33:09.648Z,100047.84
2018-03-30T22:35:35.545Z,100049.75
2018-03-30T22:38:01.418Z,100049.75
2018-03-30T22:40:28.084Z,100039.97
2018-03-30T22:42:54.709Z,100044.86
2018-03-30T22:45:21.353Z,100037.66
2018-03-30T22:47:47.980Z,100035.62
2018-03-30T22:50:14.629Z,100029.23
2018-03-30T22:52:41.270Z,100026.11
2018-03-30T22:55:07.912Z,100021.77
2018-03-30T22:57:34.548Z,100014.97
2018-03-30T23:00:01.171Z,100011.84
2018-03-30T23:02:27.841Z,100010.48
2018-03-30T23:04:53.775Z,100005.73
2018-03-30T23:07:19.693Z,100002.20
2018-03-30T23:09:45.584Z,99981.95
2018-03-30T23:12:12.269Z,99979.64
2018-03-30T23:14:38.163Z,99967.55
2018-03-30T23:17:04.076Z,99966.74
2018-03-30T23:19:29.966Z,99972.59
2018-03-30T23:21:55.886Z,99976.02
2018-03-30T23:24:22.524Z,99976.02
2018-03-30T23:26:49.175Z,99982.56
2018-03-30T23:29:15.830Z,99979.03
2018-03-30T23:31:42.517Z,99989.09
2018-03-30T23:34:08.412Z,99981.34
2018-03-30T23:36:35.076Z,99978.77
2018-03-30T23:39:00.974Z,99971.56
2018-03-30T23:41:26.874Z,99979.72
2018-03-30T23:43:53.522Z,99960.02
2018-03-30T23:46:19.420Z,99949.55
2018-03-30T23:48:46.071Z,99943.04
2018-03-30T23:51:12.704Z,99936.24
2018-03-30T23:53:39.331Z,99942.23
2018-03-30T23:56:05.973Z,99943.59
2018-03-30T23:58:32.588Z,99934.63
